createdAt,value
2022-11-17T00:00:24.681Z,35.60
2022-11-17T00:02:54.284Z,32.88
2022-11-17T00:05:23.373Z,31.63
2022-11-17T00:07:51.751Z,35.08
2022-11-17T00:10:19.832Z,35.15
2022-11-17T00:13:05.401Z,30.85
2022-11-17T00:15:33.579Z,29.88
2022-11-17T00:18:20.998Z,30.05
2022-11-17T00:21:06.262Z,32.03
2022-11-17T00:23:48.231Z,30.67
2022-11-17T00:26:16.902Z,30.33
2022-11-17T00:28:45.233Z,31.42
2022-11-17T00:31:31.856Z,30.38
2022-11-17T00:34:07.825Z,35.53
2022-11-17T00:36:38.551Z,30.75
2022-11-17T00:39:07.415Z,35.25
2022-11-17T00:41:35.735Z,32.60
2022-11-17T00:44:04.189Z,34.03
2022-11-17T00:46:32.691Z,31.17
2022-11-17T00:49:02.158Z,34.58
2022-11-17T00:51:30.935Z,30.23
2022-11-17T00:53:59.282Z,36.00
2022-11-17T00:56:27.732Z,33.38
2022-11-17T00:58:56.061Z,33.50
2022-11-17T01:01:24.884Z,35.78
2022-11-17T01:04:03.109Z,33.92
2022-11-17T01:06:35.251Z,32.78
2022-11-17T01:09:04.846Z,33.78
2022-11-17T01:11:33.214Z,31.35
2022-11-17T01:14:02.234Z,31.58
2022-11-17T01:16:31.762Z,32.13
2022-11-17T01:19:01.646Z,33.15
2022-11-17T01:21:32.509Z,32.88
2022-11-17T01:24:02.179Z,42.17
2022-11-17T01:26:32.302Z,35.65
2022-11-17T01:29:01.306Z,29.33
2022-11-17T01:31:31.003Z,34.30
2022-11-17T01:33:59.466Z,27.67
2022-11-17T01:36:30.707Z,29.90
2022-11-17T01:39:00.441Z,26.95
2022-11-17T01:41:29.698Z,30.00
2022-11-17T01:43:59.310Z,29.00
2022-11-17T01:46:34.264Z,35.97
2022-11-17T01:49:08.477Z,35.45
2022-11-17T01:51:39.949Z,36.35
2022-11-17T01:54:11.669Z,36.38
2022-11-17T01:56:45.103Z,41.63
2022-11-17T01:59:20.138Z,35.55
2022-11-17T02:01:56.643Z,34.15
2022-11-17T02:04:27.376Z,40.05
2022-11-17T02:07:01.791Z,44.22
2022-11-17T02:09:31.339Z,50.80
2022-11-17T02:12:00.889Z,49.00
2022-11-17T02:14:29.876Z,47.33
2022-11-17T02:17:02.608Z,48.35
2022-11-17T02:19:38.924Z,50.47
2022-11-17T02:22:36.613Z,44.38
2022-11-17T02:25:29.861Z,33.53
2022-11-17T02:28:07.704Z,34.60
2022-11-17T02:30:42.154Z,35.67
2022-11-17T02:33:18.524Z,33.80
2022-11-17T02:35:52.711Z,46.65
2022-11-17T02:38:29.394Z,37.17
2022-11-17T02:41:05.955Z,35.40
2022-11-17T02:44:00.361Z,32.92
2022-11-17T02:46:32.718Z,32.65
2022-11-17T02:49:06.302Z,36.00
2022-11-17T02:51:43.798Z,39.97
2022-11-17T02:54:13.666Z,52.72
2022-11-17T02:56:42.882Z,40.38
2022-11-17T02:59:14.813Z,43.55
2022-11-17T03:02:27.659Z,44.08
2022-11-17T03:05:06.136Z,48.15
2022-11-17T03:07:52.185Z,43.70
2022-11-17T03:13:01.775Z,44.33
2022-11-17T03:15:43.155Z,39.05
2022-11-17T03:18:19.910Z,51.60
2022-11-17T03:20:58.158Z,40.88
2022-11-17T03:23:34.986Z,45.15
2022-11-17T03:26:08.775Z,45.25
2022-11-17T03:28:39.124Z,113.05
2022-11-17T03:31:09.841Z,44.72
2022-11-17T03:33:40.288Z,43.22
2022-11-17T03:36:13.012Z,47.80
2022-11-17T03:38:45.815Z,48.42
2022-11-17T03:41:17.189Z,35.92
2022-11-17T03:43:48.554Z,62.78
2022-11-17T03:46:21.099Z,45.83
2022-11-17T03:48:54.704Z,38.13
2022-11-17T03:51:25.616Z,44.67
2022-11-17T03:53:54.949Z,38.40
2022-11-17T03:56:35.392Z,46.47
2022-11-17T03:59:08.150Z,46.20
2022-11-17T04:01:38.411Z,47.58
2022-11-17T04:04:06.645Z,44.30
2022-11-17T04:06:34.800Z,42.78
2022-11-17T04:09:03.075Z,50.47
2022-11-17T04:11:49.673Z,44.95
2022-11-17T04:14:34.973Z,46.33
2022-11-17T04:17:04.640Z,37.45
2022-11-17T04:19:32.738Z,39.40
2022-11-17T04:22:00.891Z,45.75
2022-11-17T04:24:28.999Z,38.92
2022-11-17T04:27:14.528Z,38.08
2022-11-17T04:29:42.566Z,30.70
2022-11-17T04:32:12.045Z,34.85
2022-11-17T04:34:42.609Z,40.65
2022-11-17T04:37:17.479Z,42.10
2022-11-17T04:39:46.044Z,39.38
2022-11-17T04:42:13.123Z,34.17
2022-11-17T04:44:41.482Z,42.20
2022-11-17T04:47:10.934Z,39.20
2022-11-17T04:49:39.048Z,35.92
2022-11-17T04:52:07.323Z,45.60
2022-11-17T04:54:35.466Z,47.22
2022-11-17T04:57:03.550Z,40.05
2022-11-17T04:59:31.654Z,35.25
2022-11-17T05:02:05.283Z,46.53
2022-11-17T05:04:55.395Z,39.50
2022-11-17T05:07:24.234Z,41.83
2022-11-17T05:09:52.312Z,38.67
2022-11-17T05:12:46.130Z,40.45
2022-11-17T05:15:34.345Z,40.13
2022-11-17T05:18:01.413Z,39.10
2022-11-17T05:20:33.496Z,38.80
2022-11-17T05:23:18.217Z,36.03
2022-11-17T05:25:46.256Z,34.53
2022-11-17T05:28:14.609Z,33.17
2022-11-17T05:30:43.941Z,34.53
2022-11-17T05:33:12.055Z,34.90
2022-11-17T05:35:41.737Z,40.60
2022-11-17T05:38:09.872Z,37.33
2022-11-17T05:40:37.871Z,34.92
2022-11-17T05:43:05.934Z,29.52
2022-11-17T05:45:34.000Z,32.10
2022-11-17T05:48:02.087Z,32.00
2022-11-17T05:50:30.153Z,38.70
2022-11-17T05:53:03.992Z,33.53
2022-11-17T05:55:32.033Z,33.85
2022-11-17T05:58:04.742Z,31.48
2022-11-17T06:00:33.591Z,29.92
2022-11-17T06:03:06.679Z,33.85
2022-11-17T06:05:35.286Z,27.45
2022-11-17T06:08:05.005Z,35.78
2022-11-17T06:10:35.490Z,28.77
2022-11-17T06:13:03.566Z,33.30
2022-11-17T06:15:31.844Z,37.70
2022-11-17T06:18:04.254Z,34.33
2022-11-17T06:20:36.787Z,35.10
2022-11-17T06:23:08.225Z,32.03
2022-11-17T06:25:37.963Z,28.20
2022-11-17T06:28:11.163Z,25.30
2022-11-17T06:30:40.559Z,24.08
2022-11-17T06:33:11.176Z,23.23
2022-11-17T06:35:39.690Z,22.58
2022-11-17T06:38:09.268Z,20.73
2022-11-17T06:40:37.368Z,25.13
2022-11-17T06:43:08.448Z,27.27
2022-11-17T06:45:37.755Z,27.60
2022-11-17T06:48:06.571Z,26.50
2022-11-17T06:50:35.037Z,23.75
2022-11-17T06:53:05.234Z,24.13
2022-11-17T06:55:36.620Z,24.08
2022-11-17T06:58:07.361Z,25.00
2022-11-17T07:00:36.955Z,20.65
2022-11-17T07:03:07.534Z,20.92
2022-11-17T07:05:39.961Z,18.52
2022-11-17T07:08:09.721Z,16.17
2022-11-17T07:10:41.627Z,18.17
2022-11-17T07:13:13.102Z,16.02
2022-11-17T07:15:41.086Z,15.35
2022-11-17T07:18:09.228Z,14.25
2022-11-17T07:20:37.320Z,16.80
2022-11-17T07:23:05.387Z,14.70
2022-11-17T07:25:33.519Z,12.20
2022-11-17T07:28:03.069Z,12.88
2022-11-17T07:30:31.315Z,14.55
2022-11-17T07:33:00.834Z,14.85
2022-11-17T07:35:29.705Z,13.82
2022-11-17T07:38:01.932Z,12.18
2022-11-17T07:40:30.680Z,14.13
2022-11-17T07:42:58.855Z,13.57
2022-11-17T07:45:31.859Z,12.73
2022-11-17T07:48:02.370Z,15.23
2022-11-17T07:50:30.916Z,16.15
2022-11-17T07:52:59.504Z,18.02
2022-11-17T07:55:27.670Z,15.00
2022-11-17T07:57:57.108Z,13.23
2022-11-17T08:00:25.546Z,13.02
2022-11-17T08:02:55.107Z,12.48
2022-11-17T08:05:24.423Z,10.90
2022-11-17T08:07:56.503Z,24.17
2022-11-17T08:10:27.009Z,12.60
2022-11-17T08:12:56.032Z,13.13
2022-11-17T08:15:24.189Z,13.02
2022-11-17T08:17:58.421Z,15.23
2022-11-17T08:20:31.136Z,17.33
2022-11-17T08:22:59.248Z,11.48
2022-11-17T08:25:28.373Z,10.95
2022-11-17T08:27:57.780Z,9.60
2022-11-17T08:30:27.195Z,16.17
2022-11-17T08:32:56.723Z,11.40
2022-11-17T08:35:26.455Z,11.68
2022-11-17T08:37:54.951Z,10.55
2022-11-17T08:40:23.434Z,12.07
2022-11-17T08:43:00.684Z,8.43
2022-11-17T08:45:29.444Z,9.07
2022-11-17T08:47:59.511Z,8.07
2022-11-17T08:50:28.262Z,6.75
2022-11-17T08:52:56.449Z,7.72
2022-11-17T08:55:26.322Z,6.53
2022-11-17T08:57:54.580Z,8.50
2022-11-17T09:00:22.717Z,6.28
2022-11-17T09:02:50.773Z,7.40
2022-11-17T09:05:21.018Z,7.15
2022-11-17T09:07:49.271Z,6.25
2022-11-17T09:10:17.648Z,6.55
2022-11-17T09:12:46.011Z,5.63
2022-11-17T09:15:14.051Z,6.75
2022-11-17T09:17:43.390Z,8.60
2022-11-17T09:20:12.560Z,7.28
2022-11-17T09:22:42.011Z,8.98
2022-11-17T09:25:13.533Z,8.38
2022-11-17T09:27:41.962Z,10.02
2022-11-17T09:30:11.239Z,8.10
2022-11-17T09:32:39.339Z,9.77
2022-11-17T09:35:09.366Z,7.35
2022-11-17T09:37:37.413Z,6.88
2022-11-17T09:40:08.348Z,5.30
2022-11-17T09:42:41.029Z,6.38
2022-11-17T09:45:14.643Z,6.65
2022-11-17T09:47:47.512Z,7.28
2022-11-17T09:50:22.414Z,6.53
2022-11-17T09:52:59.753Z,8.53
2022-11-17T09:55:34.591Z,8.90
2022-11-17T09:58:12.185Z,7.53
2022-11-17T10:00:44.399Z,8.57
2022-11-17T10:03:19.583Z,7.55
2022-11-17T10:05:48.753Z,8.98
2022-11-17T10:08:21.022Z,8.55
2022-11-17T10:10:52.269Z,8.18
2022-11-17T10:13:26.257Z,7.90
2022-11-17T10:15:58.037Z,7.80
2022-11-17T10:18:26.589Z,7.32
2022-11-17T10:20:54.870Z,6.20
2022-11-17T10:23:24.048Z,6.97
2022-11-17T10:25:59.103Z,6.75
2022-11-17T10:28:30.505Z,5.05
2022-11-17T10:31:01.214Z,5.40
2022-11-17T10:33:38.788Z,6.47
2022-11-17T10:36:15.159Z,5.90
2022-11-17T10:38:46.179Z,5.10
2022-11-17T10:41:18.613Z,5.70
2022-11-17T10:43:58.945Z,5.10
2022-11-17T10:46:32.128Z,5.95
2022-11-17T10:49:25.585Z,3.92
2022-11-17T10:52:06.500Z,5.70
2022-11-17T10:54:34.728Z,5.43
2022-11-17T10:57:08.152Z,7.57
2022-11-17T10:59:44.551Z,5.25
2022-11-17T11:02:30.448Z,6.38
2022-11-17T11:05:09.703Z,8.05
2022-11-17T11:07:38.149Z,5.55
2022-11-17T11:10:16.002Z,5.80
2022-11-17T11:12:51.007Z,5.82
2022-11-17T11:15:22.138Z,7.77
2022-11-17T11:17:50.640Z,5.72
2022-11-17T11:20:21.059Z,7.13
2022-11-17T11:22:58.247Z,5.60
2022-11-17T11:25:34.246Z,4.72
2022-11-17T11:28:16.458Z,5.40
2022-11-17T11:30:55.239Z,6.07
2022-11-17T11:33:35.181Z,3.78
2022-11-17T11:36:22.394Z,4.05
2022-11-17T11:38:58.221Z,4.88
2022-11-17T11:44:18.606Z,4.55
2022-11-17T11:46:55.174Z,4.57
2022-11-17T11:49:33.271Z,4.28
2022-11-17T11:52:03.516Z,5.72
2022-11-17T11:54:40.138Z,4.03
2022-11-17T11:57:13.294Z,4.78
2022-11-17T11:59:49.259Z,3.88
2022-11-17T12:02:29.821Z,3.00
2022-11-17T12:05:07.746Z,3.40
2022-11-17T12:07:44.222Z,3.10
2022-11-17T12:10:17.882Z,4.22
2022-11-17T12:12:47.544Z,3.70
2022-11-17T12:15:36.555Z,3.08
2022-11-17T12:18:08.109Z,2.67
2022-11-17T12:20:55.201Z,4.80
2022-11-17T12:23:57.112Z,5.65
2022-11-17T12:26:28.588Z,2.97
2022-11-17T12:29:38.648Z,2.65
2022-11-17T12:32:08.327Z,4.45
2022-11-17T12:34:37.969Z,3.70
2022-11-17T12:37:23.063Z,2.72
2022-11-17T12:40:09.955Z,2.95
2022-11-17T12:42:58.777Z,2.90
2022-11-17T12:45:26.935Z,4.00
2022-11-17T12:48:26.505Z,4.18
2022-11-17T12:50:57.351Z,3.22
2022-11-17T12:53:50.793Z,3.63
2022-11-17T12:56:45.802Z,3.35
2022-11-17T12:59:52.631Z,3.03
2022-11-17T13:02:33.583Z,3.47
2022-11-17T13:05:07.853Z,3.30
2022-11-17T13:07:36.006Z,3.30
2022-11-17T13:10:04.198Z,2.33
2022-11-17T13:12:34.325Z,3.20
2022-11-17T13:15:05.065Z,3.90
2022-11-17T13:17:34.915Z,2.55
2022-11-17T13:20:18.667Z,3.10
2022-11-17T13:23:00.782Z,2.28
2022-11-17T13:25:29.011Z,2.92
2022-11-17T13:28:04.156Z,3.22
2022-11-17T13:30:34.175Z,3.60
2022-11-17T13:33:04.076Z,4.72
2022-11-17T13:35:35.629Z,3.65
2022-11-17T13:38:06.951Z,6.35
2022-11-17T13:40:37.130Z,4.97
2022-11-17T13:43:06.844Z,5.60
2022-11-17T13:45:35.200Z,7.05
2022-11-17T13:48:03.409Z,5.85
2022-11-17T13:50:38.806Z,5.50
2022-11-17T13:53:27.346Z,3.13
2022-11-17T13:55:55.399Z,2.90
2022-11-17T13:58:36.122Z,3.67
2022-11-17T14:01:05.236Z,4.22
2022-11-17T14:03:36.798Z,5.63
2022-11-17T14:06:08.729Z,5.63
2022-11-17T14:08:39.431Z,3.10
2022-11-17T14:11:22.238Z,3.28
2022-11-17T14:13:52.314Z,4.57
2022-11-17T14:16:27.744Z,2.83
2022-11-17T14:19:01.911Z,3.67
2022-11-17T14:21:32.089Z,4.30
2022-11-17T14:24:07.213Z,4.25
2022-11-17T14:26:35.437Z,3.13
2022-11-17T14:29:03.873Z,3.92
2022-11-17T14:31:33.554Z,3.95
2022-11-17T14:34:03.556Z,4.57
2022-11-17T14:36:34.193Z,4.38
2022-11-17T14:39:02.873Z,3.67
2022-11-17T14:41:31.024Z,3.10
2022-11-17T14:43:59.178Z,4.55
2022-11-17T14:46:28.147Z,3.25
2022-11-17T14:48:56.598Z,3.13
2022-11-17T14:51:25.622Z,2.50
2022-11-17T14:53:55.274Z,2.30
2022-11-17T14:56:24.918Z,3.53
2022-11-17T14:58:55.998Z,2.78
2022-11-17T15:01:25.770Z,2.63
2022-11-17T15:03:55.336Z,3.60
2022-11-17T15:06:24.346Z,3.35
2022-11-17T15:08:58.726Z,2.45
2022-11-17T15:11:27.745Z,3.92
2022-11-17T15:13:55.999Z,3.47
2022-11-17T15:16:24.108Z,3.47
2022-11-17T15:18:52.385Z,2.45
2022-11-17T15:21:20.503Z,4.30
2022-11-17T15:23:48.627Z,3.88
2022-11-17T15:26:19.806Z,3.42
2022-11-17T15:28:48.074Z,3.25
2022-11-17T15:31:17.361Z,5.22
2022-11-17T15:33:46.546Z,5.38
2022-11-17T15:36:16.790Z,5.30
2022-11-17T15:38:45.312Z,3.13
2022-11-17T15:41:14.852Z,5.13
2022-11-17T15:43:45.929Z,5.13
2022-11-17T15:46:16.363Z,4.93
2022-11-17T15:48:45.893Z,4.20
2022-11-17T15:51:15.504Z,4.68
2022-11-17T15:53:44.792Z,4.00
2022-11-17T15:56:14.351Z,3.25
2022-11-17T15:58:44.809Z,4.18
2022-11-17T16:01:14.803Z,2.63
2022-11-17T16:03:44.644Z,2.22
2022-11-17T16:06:13.840Z,2.83
2022-11-17T16:08:42.247Z,3.10
2022-11-17T16:11:11.614Z,2.42
2022-11-17T16:13:39.962Z,1.98
2022-11-17T16:16:13.460Z,2.90
2022-11-17T16:18:42.902Z,2.58
2022-11-17T16:21:12.368Z,2.50
2022-11-17T16:23:41.878Z,2.33
2022-11-17T16:26:10.781Z,2.28
2022-11-17T16:28:39.074Z,3.75
2022-11-17T16:31:16.436Z,4.75
2022-11-17T16:33:49.222Z,3.30
2022-11-17T16:36:17.611Z,2.60
2022-11-17T16:39:02.338Z,4.15
2022-11-17T16:41:32.652Z,2.72
2022-11-17T16:44:00.917Z,2.05
2022-11-17T16:46:32.600Z,3.78
2022-11-17T16:49:03.445Z,3.78
2022-11-17T16:51:31.840Z,3.10
2022-11-17T16:54:01.812Z,3.15
2022-11-17T16:56:30.191Z,2.05
2022-11-17T16:58:58.950Z,4.10
2022-11-17T17:01:30.268Z,3.65
2022-11-17T17:04:01.678Z,3.83
2022-11-17T17:06:30.085Z,3.88
2022-11-17T17:08:59.660Z,7.28
2022-11-17T17:11:29.448Z,3.65
2022-11-17T17:13:57.609Z,3.88
2022-11-17T17:16:25.829Z,4.38
2022-11-17T17:18:56.861Z,3.90
2022-11-17T17:21:27.290Z,4.47
2022-11-17T17:23:55.492Z,3.38
2022-11-17T17:26:24.967Z,3.78
2022-11-17T17:28:55.471Z,3.80
2022-11-17T17:31:24.976Z,3.25
2022-11-17T17:33:53.876Z,5.05
2022-11-17T17:36:23.864Z,4.32
2022-11-17T17:38:57.912Z,4.57
2022-11-17T17:41:29.221Z,5.35
2022-11-17T17:43:59.956Z,4.30
2022-11-17T17:46:29.861Z,4.68
2022-11-17T17:48:58.505Z,4.22
2022-11-17T17:51:28.106Z,4.78
2022-11-17T17:54:00.729Z,5.82
2022-11-17T17:56:30.384Z,5.97
2022-11-17T17:58:59.207Z,4.90
2022-11-17T18:01:28.754Z,4.78
2022-11-17T18:04:01.507Z,6.57
2022-11-17T18:06:29.609Z,5.80
2022-11-17T18:08:59.500Z,4.13
2022-11-17T18:11:27.666Z,3.85
2022-11-17T18:13:55.740Z,4.60
2022-11-17T18:16:26.015Z,4.30
2022-11-17T18:18:58.079Z,5.35
2022-11-17T18:21:27.638Z,5.05
2022-11-17T18:23:58.847Z,4.95
2022-11-17T18:26:28.437Z,4.38
2022-11-17T18:28:58.048Z,4.90
2022-11-17T18:31:27.980Z,5.90
2022-11-17T18:33:58.014Z,4.30
2022-11-17T18:36:26.513Z,4.97
2022-11-17T18:38:54.648Z,7.32
2022-11-17T18:41:24.350Z,7.72
2022-11-17T18:43:52.447Z,6.28
2022-11-17T18:46:22.410Z,7.72
2022-11-17T18:48:52.586Z,6.72
2022-11-17T18:51:22.698Z,6.00
2022-11-17T18:53:52.587Z,6.38
2022-11-17T18:56:23.751Z,5.80
2022-11-17T18:58:52.286Z,6.55
2022-11-17T19:01:21.900Z,6.93
2022-11-17T19:03:51.563Z,5.93
2022-11-17T19:06:20.966Z,5.75
2022-11-17T19:08:49.530Z,6.50
2022-11-17T19:11:18.688Z,6.82
2022-11-17T19:13:48.654Z,6.00
2022-11-17T19:16:18.718Z,8.10
2022-11-17T19:18:48.172Z,6.07
2022-11-17T19:21:18.564Z,5.70
2022-11-17T19:23:51.900Z,6.10
2022-11-17T19:26:22.300Z,5.80
2022-11-17T19:28:55.607Z,6.18
2022-11-17T19:31:23.997Z,4.88
2022-11-17T19:33:52.269Z,5.75
2022-11-17T19:36:21.854Z,5.05
2022-11-17T19:38:51.335Z,6.72
2022-11-17T19:41:21.757Z,4.72
2022-11-17T19:43:52.830Z,5.47
2022-11-17T19:46:21.521Z,5.88
2022-11-17T19:48:49.754Z,5.38
2022-11-17T19:51:19.919Z,4.78
2022-11-17T19:53:48.231Z,4.68
2022-11-17T19:56:17.046Z,3.78
2022-11-17T19:58:46.110Z,4.43
2022-11-17T20:01:17.682Z,4.35
2022-11-17T20:03:46.626Z,5.25
2022-11-17T20:06:17.061Z,4.78
2022-11-17T20:08:45.541Z,4.03
2022-11-17T20:11:15.644Z,3.72
2022-11-17T20:13:44.397Z,6.38
2022-11-17T20:16:13.911Z,5.07
2022-11-17T20:18:44.305Z,4.45
2022-11-17T20:21:14.313Z,4.30
2022-11-17T20:23:43.491Z,2.97
2022-11-17T20:26:13.975Z,4.25
2022-11-17T20:28:42.920Z,5.20
2022-11-17T20:31:12.862Z,5.10
2022-11-17T20:33:44.071Z,4.57
2022-11-17T20:36:17.914Z,4.32
2022-11-17T20:38:46.709Z,3.85
2022-11-17T20:41:14.894Z,4.75
2022-11-17T20:43:43.196Z,6.25
2022-11-17T20:46:11.235Z,8.77
2022-11-17T20:48:39.221Z,5.53
2022-11-17T20:51:12.211Z,6.82
2022-11-17T20:53:40.643Z,5.43
2022-11-17T20:56:10.450Z,7.32
2022-11-17T20:58:38.628Z,7.65
2022-11-17T21:01:11.169Z,6.90
2022-11-17T21:03:39.759Z,6.45
2022-11-17T21:06:10.168Z,5.72
2022-11-17T21:08:40.759Z,5.15
2022-11-17T21:11:11.293Z,6.57
2022-11-17T21:13:39.636Z,5.38
2022-11-17T21:16:10.650Z,5.35
2022-11-17T21:18:41.141Z,5.40
2022-11-17T21:21:11.347Z,4.90
2022-11-17T21:23:40.714Z,6.15
2022-11-17T21:26:09.483Z,7.65
2022-11-17T21:28:38.371Z,5.03
2022-11-17T21:31:08.583Z,8.25
2022-11-17T21:33:37.429Z,7.20
2022-11-17T21:36:08.640Z,4.90
2022-11-17T21:38:38.470Z,5.60
2022-11-17T21:41:16.058Z,6.00
2022-11-17T21:43:45.843Z,6.05
2022-11-17T21:46:15.616Z,4.57
2022-11-17T21:48:44.245Z,5.07
2022-11-17T21:51:17.437Z,5.38
2022-11-17T21:53:47.587Z,3.78
2022-11-17T21:56:15.710Z,5.57
2022-11-17T21:58:43.759Z,5.85
2022-11-17T22:01:13.729Z,5.03
2022-11-17T22:03:43.042Z,5.05
2022-11-17T22:06:13.169Z,4.60
2022-11-17T22:08:43.081Z,6.13
2022-11-17T22:11:15.178Z,5.82
2022-11-17T22:13:43.808Z,4.95
2022-11-17T22:16:13.989Z,4.25
2022-11-17T22:18:42.786Z,3.60
2022-11-17T22:21:10.894Z,4.28
2022-11-17T22:23:39.044Z,4.40
2022-11-17T22:26:07.364Z,5.07
2022-11-17T22:28:36.868Z,4.35
2022-11-17T22:31:06.726Z,6.93
2022-11-17T22:33:34.916Z,4.35
2022-11-17T22:36:04.110Z,5.47
2022-11-17T22:38:32.209Z,6.43
2022-11-17T22:41:01.558Z,6.07
2022-11-17T22:43:29.804Z,4.65
2022-11-17T22:46:02.871Z,5.68
2022-11-17T22:48:31.141Z,5.45
2022-11-17T22:50:59.819Z,4.15
2022-11-17T22:53:28.789Z,3.30
2022-11-17T22:56:01.870Z,4.13
2022-11-17T22:58:29.960Z,4.05
2022-11-17T23:01:05.205Z,3.45
2022-11-17T23:03:33.432Z,4.47
2022-11-17T23:06:05.857Z,3.65
2022-11-17T23:08:34.065Z,4.13
2022-11-17T23:11:34.862Z,3.08
2022-11-17T23:13:50.474Z,4.93
2022-11-17T23:16:20.033Z,5.45
2022-11-17T23:18:48.136Z,4.68
2022-11-17T23:21:16.201Z,3.90
2022-11-17T23:23:44.279Z,4.47
2022-11-17T23:26:13.299Z,4.57
2022-11-17T23:28:42.608Z,4.47
2022-11-17T23:31:12.318Z,3.88
2022-11-17T23:33:43.434Z,8.60
2022-11-17T23:36:15.553Z,4.13
2022-11-17T23:38:44.269Z,4.95
2022-11-17T23:41:14.079Z,5.32
2022-11-17T23:43:42.281Z,4.88
2022-11-17T23:46:12.149Z,5.80
2022-11-17T23:48:42.450Z,5.05
2022-11-17T23:51:12.488Z,4.80
2022-11-17T23:53:40.777Z,5.72
2022-11-17T23:56:09.494Z,5.40
2022-11-17T23:58:38.490Z,6.25
